Risingsun, Ohio
Current Conditions -  °F | °C
As of 8:53 AM on Saturday 20 Dec 2014 (Local Time) from KTDZ Reporting Station
Overcast Overcast  
Wind Chill: 25°   Ceiling: 2600
Heat Index: 30°   Visibility: 10mi
Dew Point: 21°   Wind: 5mph
Humidity: 69%   Direction: 190°S
Pressure: 30.31"   Gusts: NA
Location:  41.27°N, 83.42°W
Report Text: KTDZ 201353Z AUTO 19004KT 10SM OVC026 M01/M06 A3031 RMK AO2 SLP271 T10111061 TSNO
Loading
Personal Weather Stations






























Interactive Weather Map New forecast layout! Learn more

10-Day Weather Forecast

Advertisements
Track Severe Weather on mobile